sensor_id;sensor_type;location;lat;lon;timestamp;P1;durP1;ratioP1;P2;durP2;ratioP2
3297;SDS011;1661;53.572;10.174;2023-03-21T00:00:12;25.83;;;19.60;;
3297;SDS011;1661;53.572;10.174;2023-03-21T00:02:40;23.37;;;19.50;;
3297;SDS011;1661;53.572;10.174;2023-03-21T00:05:07;21.33;;;19.10;;
3297;SDS011;1661;53.572;10.174;2023-03-21T00:07:38;23.00;;;19.60;;
3297;SDS011;1661;53.572;10.174;2023-03-21T00:10:12;27.83;;;20.47;;
3297;SDS011;1661;53.572;10.174;2023-03-21T00:12:39;24.73;;;20.30;;
3297;SDS011;1661;53.572;10.174;2023-03-21T00:15:08;27.20;;;21.60;;
3297;SDS011;1661;53.572;10.174;2023-03-21T00:17:37;25.73;;;21.50;;
3297;SDS011;1661;53.572;10.174;2023-03-21T00:20:04;31.33;;;23.90;;
3297;SDS011;1661;53.572;10.174;2023-03-21T00:22:40;28.30;;;20.37;;
3297;SDS011;1661;53.572;10.174;2023-03-21T00:25:08;30.20;;;21.67;;
3297;SDS011;1661;53.572;10.174;2023-03-21T00:27:35;34.00;;;23.03;;
3297;SDS011;1661;53.572;10.174;2023-03-21T00:30:02;31.87;;;23.30;;
3297;SDS011;1661;53.572;10.174;2023-03-21T00:32:30;28.37;;;23.00;;
3297;SDS011;1661;53.572;10.174;2023-03-21T00:34:57;31.07;;;23.40;;
3297;SDS011;1661;53.572;10.174;2023-03-21T00:37:26;32.73;;;23.67;;
3297;SDS011;1661;53.572;10.174;2023-03-21T00:39:55;33.00;;;23.27;;
3297;SDS011;1661;53.572;10.174;2023-03-21T00:42:21;32.20;;;25.10;;
3297;SDS011;1661;53.572;10.174;2023-03-21T00:44:48;25.67;;;21.57;;
3297;SDS011;1661;53.572;10.174;2023-03-21T00:47:15;34.33;;;23.47;;
3297;SDS011;1661;53.572;10.174;2023-03-21T00:49:45;41.13;;;24.40;;
3297;SDS011;1661;53.572;10.174;2023-03-21T00:52:14;35.37;;;26.87;;
3297;SDS011;1661;53.572;10.174;2023-03-21T00:54:41;36.40;;;25.50;;
3297;SDS011;1661;53.572;10.174;2023-03-21T00:57:09;36.50;;;25.90;;
3297;SDS011;1661;53.572;10.174;2023-03-21T00:59:35;32.00;;;23.27;;
3297;SDS011;1661;53.572;10.174;2023-03-21T01:02:05;36.50;;;25.37;;
3297;SDS011;1661;53.572;10.174;2023-03-21T01:04:32;36.40;;;25.07;;
3297;SDS011;1661;53.572;10.174;2023-03-21T01:06:59;35.43;;;25.57;;
3297;SDS011;1661;53.572;10.174;2023-03-21T01:09:26;38.33;;;26.60;;
3297;SDS011;1661;53.572;10.174;2023-03-21T01:11:57;40.40;;;27.77;;
3297;SDS011;1661;53.572;10.174;2023-03-21T01:14:25;29.10;;;23.07;;
3297;SDS011;1661;53.572;10.174;2023-03-21T01:16:52;39.13;;;27.63;;
3297;SDS011;1661;53.572;10.174;2023-03-21T01:19:20;40.60;;;25.40;;
3297;SDS011;1661;53.572;10.174;2023-03-21T01:21:50;38.73;;;28.03;;
3297;SDS011;1661;53.572;10.174;2023-03-21T01:24:17;39.57;;;27.90;;
3297;SDS011;1661;53.572;10.174;2023-03-21T01:26:44;41.53;;;28.93;;
3297;SDS011;1661;53.572;10.174;2023-03-21T01:29:10;41.53;;;28.40;;
3297;SDS011;1661;53.572;10.174;2023-03-21T01:34:10;43.60;;;30.03;;
3297;SDS011;1661;53.572;10.174;2023-03-21T01:36:40;35.70;;;26.30;;
3297;SDS011;1661;53.572;10.174;2023-03-21T01:39:07;42.57;;;28.83;;
3297;SDS011;1661;53.572;10.174;2023-03-21T01:41:35;38.70;;;28.63;;
3297;SDS011;1661;53.572;10.174;2023-03-21T01:44:03;40.70;;;28.70;;
3297;SDS011;1661;53.572;10.174;2023-03-21T01:46:35;40.67;;;29.40;;
3297;SDS011;1661;53.572;10.174;2023-03-21T01:49:06;42.13;;;29.30;;
3297;SDS011;1661;53.572;10.174;2023-03-21T01:51:40;36.03;;;27.20;;
3297;SDS011;1661;53.572;10.174;2023-03-21T01:54:12;40.47;;;29.57;;
3297;SDS011;1661;53.572;10.174;2023-03-21T01:56:43;40.77;;;27.80;;
3297;SDS011;1661;53.572;10.174;2023-03-21T01:59:13;48.77;;;32.93;;
3297;SDS011;1661;53.572;10.174;2023-03-21T02:01:45;38.70;;;29.00;;
3297;SDS011;1661;53.572;10.174;2023-03-21T02:04:17;34.10;;;25.50;;
3297;SDS011;1661;53.572;10.174;2023-03-21T02:06:53;44.67;;;32.30;;
3297;SDS011;1661;53.572;10.174;2023-03-21T02:09:27;46.43;;;31.83;;
3297;SDS011;1661;53.572;10.174;2023-03-21T02:11:57;42.13;;;29.60;;
3297;SDS011;1661;53.572;10.174;2023-03-21T02:14:30;45.47;;;31.17;;
3297;SDS011;1661;53.572;10.174;2023-03-21T02:17:01;49.73;;;33.40;;
3297;SDS011;1661;53.572;10.174;2023-03-21T02:19:50;44.33;;;30.73;;
3297;SDS011;1661;53.572;10.174;2023-03-21T02:22:49;47.63;;;30.07;;
3297;SDS011;1661;53.572;10.174;2023-03-21T02:28:40;47.70;;;32.90;;
3297;SDS011;1661;53.572;10.174;2023-03-21T02:31:25;44.80;;;31.30;;
3297;SDS011;1661;53.572;10.174;2023-03-21T02:37:14;43.10;;;28.90;;
3297;SDS011;1661;53.572;10.174;2023-03-21T02:39:53;44.77;;;29.83;;
3297;SDS011;1661;53.572;10.174;2023-03-21T02:42:33;41.80;;;30.97;;
3297;SDS011;1661;53.572;10.174;2023-03-21T02:45:07;44.63;;;31.83;;
3297;SDS011;1661;53.572;10.174;2023-03-21T02:47:41;43.97;;;30.13;;
3297;SDS011;1661;53.572;10.174;2023-03-21T02:50:12;43.83;;;32.03;;
3297;SDS011;1661;53.572;10.174;2023-03-21T02:52:45;45.23;;;31.00;;
3297;SDS011;1661;53.572;10.174;2023-03-21T02:55:14;42.90;;;30.17;;
3297;SDS011;1661;53.572;10.174;2023-03-21T02:57:45;42.57;;;30.57;;
3297;SDS011;1661;53.572;10.174;2023-03-21T03:00:15;41.50;;;30.90;;
3297;SDS011;1661;53.572;10.174;2023-03-21T03:02:45;41.50;;;30.27;;
3297;SDS011;1661;53.572;10.174;2023-03-21T03:05:15;45.67;;;31.67;;
3297;SDS011;1661;53.572;10.174;2023-03-21T03:07:48;45.60;;;31.90;;
3297;SDS011;1661;53.572;10.174;2023-03-21T03:10:28;45.30;;;30.00;;
3297;SDS011;1661;53.572;10.174;2023-03-21T03:13:06;42.40;;;30.80;;
3297;SDS011;1661;53.572;10.174;2023-03-21T03:15:43;48.60;;;33.93;;
3297;SDS011;1661;53.572;10.174;2023-03-21T03:18:18;49.90;;;34.30;;
3297;SDS011;1661;53.572;10.174;2023-03-21T03:20:51;47.10;;;30.20;;
3297;SDS011;1661;53.572;10.174;2023-03-21T03:23:27;46.77;;;31.93;;
3297;SDS011;1661;53.572;10.174;2023-03-21T03:26:01;46.37;;;31.80;;
3297;SDS011;1661;53.572;10.174;2023-03-21T03:28:36;53.13;;;33.47;;
3297;SDS011;1661;53.572;10.174;2023-03-21T03:31:06;49.30;;;31.03;;
3297;SDS011;1661;53.572;10.174;2023-03-21T03:33:39;43.67;;;31.63;;
3297;SDS011;1661;53.572;10.174;2023-03-21T03:36:09;52.20;;;34.23;;
3297;SDS011;1661;53.572;10.174;2023-03-21T03:38:39;47.00;;;34.20;;
3297;SDS011;1661;53.572;10.174;2023-03-21T03:41:08;49.00;;;34.33;;
3297;SDS011;1661;53.572;10.174;2023-03-21T03:43:39;47.47;;;33.23;;
3297;SDS011;1661;53.572;10.174;2023-03-21T03:46:11;55.37;;;36.17;;
3297;SDS011;1661;53.572;10.174;2023-03-21T03:48:43;52.03;;;33.87;;
3297;SDS011;1661;53.572;10.174;2023-03-21T03:51:19;50.10;;;32.27;;
3297;SDS011;1661;53.572;10.174;2023-03-21T03:53:52;50.50;;;33.07;;
3297;SDS011;1661;53.572;10.174;2023-03-21T03:56:22;53.20;;;34.50;;
3297;SDS011;1661;53.572;10.174;2023-03-21T03:58:53;50.80;;;34.83;;
3297;SDS011;1661;53.572;10.174;2023-03-21T04:01:24;54.70;;;36.10;;
3297;SDS011;1661;53.572;10.174;2023-03-21T04:03:51;49.03;;;34.03;;
3297;SDS011;1661;53.572;10.174;2023-03-21T04:06:18;55.33;;;35.43;;
3297;SDS011;1661;53.572;10.174;2023-03-21T04:08:46;54.37;;;36.83;;
3297;SDS011;1661;53.572;10.174;2023-03-21T04:11:17;57.90;;;38.23;;
3297;SDS011;1661;53.572;10.174;2023-03-21T04:13:47;51.63;;;35.03;;
3297;SDS011;1661;53.572;10.174;2023-03-21T04:16:16;49.40;;;34.07;;
3297;SDS011;1661;53.572;10.174;2023-03-21T04:18:43;47.30;;;35.40;;
3297;SDS011;1661;53.572;10.174;2023-03-21T04:21:13;53.07;;;35.30;;
3297;SDS011;1661;53.572;10.174;2023-03-21T04:23:40;47.27;;;33.60;;
3297;SDS011;1661;53.572;10.174;2023-03-21T04:26:07;58.27;;;35.87;;
3297;SDS011;1661;53.572;10.174;2023-03-21T04:28:36;53.13;;;36.43;;
3297;SDS011;1661;53.572;10.174;2023-03-21T04:31:04;50.63;;;33.07;;
3297;SDS011;1661;53.572;10.174;2023-03-21T04:33:31;51.00;;;36.80;;
3297;SDS011;1661;53.572;10.174;2023-03-21T04:36:02;58.27;;;35.90;;
3297;SDS011;1661;53.572;10.174;2023-03-21T04:38:30;49.63;;;35.07;;
3297;SDS011;1661;53.572;10.174;2023-03-21T04:41:00;51.77;;;34.57;;
3297;SDS011;1661;53.572;10.174;2023-03-21T04:43:28;58.10;;;36.37;;
3297;SDS011;1661;53.572;10.174;2023-03-21T04:45:57;44.07;;;32.97;;
3297;SDS011;1661;53.572;10.174;2023-03-21T04:48:26;60.63;;;37.00;;
3297;SDS011;1661;53.572;10.174;2023-03-21T04:50:56;46.40;;;32.70;;
3297;SDS011;1661;53.572;10.174;2023-03-21T04:53:23;54.80;;;36.87;;
3297;SDS011;1661;53.572;10.174;2023-03-21T04:55:50;48.17;;;34.30;;
3297;SDS011;1661;53.572;10.174;2023-03-21T04:58:16;52.87;;;36.53;;
3297;SDS011;1661;53.572;10.174;2023-03-21T05:00:44;64.63;;;37.17;;
3297;SDS011;1661;53.572;10.174;2023-03-21T05:03:13;58.60;;;37.10;;
3297;SDS011;1661;53.572;10.174;2023-03-21T05:05:43;60.67;;;38.43;;
3297;SDS011;1661;53.572;10.174;2023-03-21T05:08:11;58.00;;;39.40;;
3297;SDS011;1661;53.572;10.174;2023-03-21T05:10:39;59.87;;;39.80;;
3297;SDS011;1661;53.572;10.174;2023-03-21T05:13:08;55.70;;;38.37;;
3297;SDS011;1661;53.572;10.174;2023-03-21T05:15:35;61.47;;;38.07;;
3297;SDS011;1661;53.572;10.174;2023-03-21T05:18:02;61.17;;;39.97;;
3297;SDS011;1661;53.572;10.174;2023-03-21T05:20:36;56.67;;;38.10;;
3297;SDS011;1661;53.572;10.174;2023-03-21T05:23:09;51.00;;;36.00;;
3297;SDS011;1661;53.572;10.174;2023-03-21T05:25:39;57.60;;;37.60;;
3297;SDS011;1661;53.572;10.174;2023-03-21T05:28:06;60.43;;;38.90;;
3297;SDS011;1661;53.572;10.174;2023-03-21T05:30:33;56.40;;;37.33;;
3297;SDS011;1661;53.572;10.174;2023-03-21T05:33:00;58.73;;;38.00;;
3297;SDS011;1661;53.572;10.174;2023-03-21T05:35:27;61.27;;;41.97;;
3297;SDS011;1661;53.572;10.174;2023-03-21T05:37:55;57.20;;;40.13;;
3297;SDS011;1661;53.572;10.174;2023-03-21T05:40:22;55.10;;;37.53;;
3297;SDS011;1661;53.572;10.174;2023-03-21T05:42:49;60.07;;;41.57;;
3297;SDS011;1661;53.572;10.174;2023-03-21T05:45:15;61.33;;;40.20;;
3297;SDS011;1661;53.572;10.174;2023-03-21T05:47:42;54.77;;;37.50;;
3297;SDS011;1661;53.572;10.174;2023-03-21T05:50:09;58.47;;;39.27;;
3297;SDS011;1661;53.572;10.174;2023-03-21T05:52:37;57.67;;;38.13;;
3297;SDS011;1661;53.572;10.174;2023-03-21T05:55:06;64.67;;;41.20;;
3297;SDS011;1661;53.572;10.174;2023-03-21T05:57:33;66.73;;;41.97;;
3297;SDS011;1661;53.572;10.174;2023-03-21T06:00:03;57.00;;;39.13;;
3297;SDS011;1661;53.572;10.174;2023-03-21T06:02:31;62.83;;;39.80;;
3297;SDS011;1661;53.572;10.174;2023-03-21T06:04:58;69.03;;;43.17;;
3297;SDS011;1661;53.572;10.174;2023-03-21T06:07:24;63.27;;;42.87;;
3297;SDS011;1661;53.572;10.174;2023-03-21T06:09:51;62.30;;;40.13;;
3297;SDS011;1661;53.572;10.174;2023-03-21T06:12:21;71.90;;;42.67;;
3297;SDS011;1661;53.572;10.174;2023-03-21T06:14:51;66.00;;;41.40;;
3297;SDS011;1661;53.572;10.174;2023-03-21T06:17:17;75.30;;;43.23;;
3297;SDS011;1661;53.572;10.174;2023-03-21T06:19:44;62.67;;;43.63;;
3297;SDS011;1661;53.572;10.174;2023-03-21T06:22:11;69.20;;;42.37;;
3297;SDS011;1661;53.572;10.174;2023-03-21T06:24:38;65.57;;;41.63;;
3297;SDS011;1661;53.572;10.174;2023-03-21T06:27:04;60.00;;;41.30;;
3297;SDS011;1661;53.572;10.174;2023-03-21T06:29:33;57.70;;;39.33;;
3297;SDS011;1661;53.572;10.174;2023-03-21T06:32:00;59.20;;;41.17;;
3297;SDS011;1661;53.572;10.174;2023-03-21T06:34:26;62.33;;;40.93;;
3297;SDS011;1661;53.572;10.174;2023-03-21T06:36:55;69.17;;;43.97;;
3297;SDS011;1661;53.572;10.174;2023-03-21T06:39:22;64.80;;;44.07;;
3297;SDS011;1661;53.572;10.174;2023-03-21T06:41:49;59.93;;;39.60;;
3297;SDS011;1661;53.572;10.174;2023-03-21T06:44:16;57.00;;;38.80;;
3297;SDS011;1661;53.572;10.174;2023-03-21T06:46:44;61.20;;;40.03;;
3297;SDS011;1661;53.572;10.174;2023-03-21T06:49:11;60.27;;;38.33;;
3297;SDS011;1661;53.572;10.174;2023-03-21T06:51:38;56.27;;;38.03;;
3297;SDS011;1661;53.572;10.174;2023-03-21T06:54:11;59.83;;;38.97;;
3297;SDS011;1661;53.572;10.174;2023-03-21T06:56:38;54.03;;;36.97;;
3297;SDS011;1661;53.572;10.174;2023-03-21T06:59:07;58.73;;;41.27;;
3297;SDS011;1661;53.572;10.174;2023-03-21T07:01:36;64.00;;;39.83;;
3297;SDS011;1661;53.572;10.174;2023-03-21T07:04:07;55.10;;;37.63;;
3297;SDS011;1661;53.572;10.174;2023-03-21T07:06:34;63.53;;;40.20;;
3297;SDS011;1661;53.572;10.174;2023-03-21T07:09:01;59.73;;;41.33;;
3297;SDS011;1661;53.572;10.174;2023-03-21T07:11:29;61.97;;;41.20;;
3297;SDS011;1661;53.572;10.174;2023-03-21T07:13:56;69.43;;;42.60;;
3297;SDS011;1661;53.572;10.174;2023-03-21T07:16:23;66.23;;;42.50;;
3297;SDS011;1661;53.572;10.174;2023-03-21T07:18:50;60.70;;;42.47;;
3297;SDS011;1661;53.572;10.174;2023-03-21T07:21:18;62.67;;;40.20;;
3297;SDS011;1661;53.572;10.174;2023-03-21T07:23:45;68.27;;;43.63;;
3297;SDS011;1661;53.572;10.174;2023-03-21T07:26:14;72.50;;;43.80;;
3297;SDS011;1661;53.572;10.174;2023-03-21T07:28:42;77.27;;;42.90;;
3297;SDS011;1661;53.572;10.174;2023-03-21T07:31:15;68.17;;;43.37;;
3297;SDS011;1661;53.572;10.174;2023-03-21T07:33:43;63.60;;;42.37;;
3297;SDS011;1661;53.572;10.174;2023-03-21T07:36:13;73.17;;;43.40;;
3297;SDS011;1661;53.572;10.174;2023-03-21T07:38:42;70.03;;;44.03;;
3297;SDS011;1661;53.572;10.174;2023-03-21T07:41:10;66.33;;;43.57;;
3297;SDS011;1661;53.572;10.174;2023-03-21T07:43:36;66.50;;;43.70;;
3297;SDS011;1661;53.572;10.174;2023-03-21T07:46:03;67.73;;;45.77;;
3297;SDS011;1661;53.572;10.174;2023-03-21T07:48:31;71.07;;;43.83;;
3297;SDS011;1661;53.572;10.174;2023-03-21T07:50:57;76.37;;;44.20;;
3297;SDS011;1661;53.572;10.174;2023-03-21T07:53:26;70.27;;;44.60;;
3297;SDS011;1661;53.572;10.174;2023-03-21T07:55:57;77.47;;;45.13;;
3297;SDS011;1661;53.572;10.174;2023-03-21T07:58:26;68.63;;;44.33;;
3297;SDS011;1661;53.572;10.174;2023-03-21T08:00:53;82.17;;;47.73;;
3297;SDS011;1661;53.572;10.174;2023-03-21T08:03:20;75.83;;;47.83;;
3297;SDS011;1661;53.572;10.174;2023-03-21T08:05:50;74.30;;;45.33;;
3297;SDS011;1661;53.572;10.174;2023-03-21T08:08:20;73.27;;;45.83;;
3297;SDS011;1661;53.572;10.174;2023-03-21T08:10:47;67.50;;;43.80;;
3297;SDS011;1661;53.572;10.174;2023-03-21T08:13:15;73.33;;;44.20;;
3297;SDS011;1661;53.572;10.174;2023-03-21T08:15:42;68.30;;;42.70;;
3297;SDS011;1661;53.572;10.174;2023-03-21T08:18:08;75.60;;;45.60;;
3297;SDS011;1661;53.572;10.174;2023-03-21T08:20:39;71.37;;;45.50;;
3297;SDS011;1661;53.572;10.174;2023-03-21T08:23:05;65.63;;;41.77;;
3297;SDS011;1661;53.572;10.174;2023-03-21T08:25:32;62.30;;;41.00;;
3297;SDS011;1661;53.572;10.174;2023-03-21T08:27:59;65.13;;;42.13;;
3297;SDS011;1661;53.572;10.174;2023-03-21T08:30:27;69.27;;;43.63;;
3297;SDS011;1661;53.572;10.174;2023-03-21T08:32:55;75.70;;;45.10;;
3297;SDS011;1661;53.572;10.174;2023-03-21T08:35:22;61.00;;;41.83;;
3297;SDS011;1661;53.572;10.174;2023-03-21T08:37:50;70.23;;;43.70;;
3297;SDS011;1661;53.572;10.174;2023-03-21T08:40:18;70.03;;;42.70;;
3297;SDS011;1661;53.572;10.174;2023-03-21T08:42:47;69.77;;;43.57;;
3297;SDS011;1661;53.572;10.174;2023-03-21T08:45:15;67.73;;;44.97;;
3297;SDS011;1661;53.572;10.174;2023-03-21T08:47:43;61.57;;;40.90;;
3297;SDS011;1661;53.572;10.174;2023-03-21T08:50:11;62.37;;;42.90;;
3297;SDS011;1661;53.572;10.174;2023-03-21T08:52:40;64.17;;;40.67;;
3297;SDS011;1661;53.572;10.174;2023-03-21T08:55:07;62.73;;;40.33;;
3297;SDS011;1661;53.572;10.174;2023-03-21T08:57:35;61.43;;;39.87;;
3297;SDS011;1661;53.572;10.174;2023-03-21T09:00:03;60.53;;;39.90;;
3297;SDS011;1661;53.572;10.174;2023-03-21T09:02:35;54.50;;;38.73;;
3297;SDS011;1661;53.572;10.174;2023-03-21T09:05:06;60.70;;;39.87;;
3297;SDS011;1661;53.572;10.174;2023-03-21T09:07:36;57.87;;;36.90;;
3297;SDS011;1661;53.572;10.174;2023-03-21T09:10:04;60.67;;;37.97;;
3297;SDS011;1661;53.572;10.174;2023-03-21T09:12:32;45.90;;;34.17;;
3297;SDS011;1661;53.572;10.174;2023-03-21T09:14:59;53.23;;;35.93;;
3297;SDS011;1661;53.572;10.174;2023-03-21T09:17:26;53.10;;;36.40;;
3297;SDS011;1661;53.572;10.174;2023-03-21T09:19:53;62.37;;;37.87;;
3297;SDS011;1661;53.572;10.174;2023-03-21T09:22:25;56.33;;;36.10;;
3297;SDS011;1661;53.572;10.174;2023-03-21T09:24:52;54.43;;;35.47;;
3297;SDS011;1661;53.572;10.174;2023-03-21T09:27:21;60.17;;;38.33;;
3297;SDS011;1661;53.572;10.174;2023-03-21T09:29:50;53.43;;;34.20;;
3297;SDS011;1661;53.572;10.174;2023-03-21T09:32:18;59.93;;;38.97;;
3297;SDS011;1661;53.572;10.174;2023-03-21T09:34:48;48.33;;;34.87;;
3297;SDS011;1661;53.572;10.174;2023-03-21T09:37:17;52.87;;;37.20;;
3297;SDS011;1661;53.572;10.174;2023-03-21T09:39:46;57.10;;;35.00;;
3297;SDS011;1661;53.572;10.174;2023-03-21T09:42:18;58.73;;;36.20;;
3297;SDS011;1661;53.572;10.174;2023-03-21T09:44:52;62.77;;;38.37;;
3297;SDS011;1661;53.572;10.174;2023-03-21T09:47:35;58.63;;;39.90;;
3297;SDS011;1661;53.572;10.174;2023-03-21T09:50:10;69.40;;;44.00;;
3297;SDS011;1661;53.572;10.174;2023-03-21T09:52:45;58.80;;;37.47;;
3297;SDS011;1661;53.572;10.174;2023-03-21T09:55:17;47.33;;;34.20;;
3297;SDS011;1661;53.572;10.174;2023-03-21T09:57:46;62.30;;;39.73;;
3297;SDS011;1661;53.572;10.174;2023-03-21T10:00:19;59.70;;;37.47;;
3297;SDS011;1661;53.572;10.174;2023-03-21T10:02:50;56.80;;;36.00;;
3297;SDS011;1661;53.572;10.174;2023-03-21T10:05:18;56.27;;;37.87;;
3297;SDS011;1661;53.572;10.174;2023-03-21T10:07:51;58.10;;;37.00;;
3297;SDS011;1661;53.572;10.174;2023-03-21T10:10:23;61.57;;;38.50;;
3297;SDS011;1661;53.572;10.174;2023-03-21T10:12:53;62.73;;;36.67;;
3297;SDS011;1661;53.572;10.174;2023-03-21T10:15:22;71.07;;;39.00;;
3297;SDS011;1661;53.572;10.174;2023-03-21T10:17:52;63.47;;;39.30;;
3297;SDS011;1661;53.572;10.174;2023-03-21T10:20:23;69.33;;;38.77;;
3297;SDS011;1661;53.572;10.174;2023-03-21T10:22:52;59.47;;;37.57;;
3297;SDS011;1661;53.572;10.174;2023-03-21T10:25:25;60.10;;;39.23;;
3297;SDS011;1661;53.572;10.174;2023-03-21T10:27:56;55.00;;;37.03;;
3297;SDS011;1661;53.572;10.174;2023-03-21T10:30:27;59.73;;;36.23;;
3297;SDS011;1661;53.572;10.174;2023-03-21T10:33:00;62.20;;;37.67;;
3297;SDS011;1661;53.572;10.174;2023-03-21T10:35:29;54.53;;;34.97;;
3297;SDS011;1661;53.572;10.174;2023-03-21T10:37:58;54.93;;;34.97;;
3297;SDS011;1661;53.572;10.174;2023-03-21T10:40:27;68.10;;;39.97;;
3297;SDS011;1661;53.572;10.174;2023-03-21T10:42:54;51.60;;;33.83;;
3297;SDS011;1661;53.572;10.174;2023-03-21T10:45:24;48.93;;;30.03;;
3297;SDS011;1661;53.572;10.174;2023-03-21T10:47:51;52.67;;;34.67;;
3297;SDS011;1661;53.572;10.174;2023-03-21T10:50:19;60.80;;;37.50;;
3297;SDS011;1661;53.572;10.174;2023-03-21T10:52:50;54.27;;;37.57;;
3297;SDS011;1661;53.572;10.174;2023-03-21T10:55:24;56.90;;;29.80;;
3297;SDS011;1661;53.572;10.174;2023-03-21T10:57:55;58.67;;;41.47;;
3297;SDS011;1661;53.572;10.174;2023-03-21T11:00:27;52.57;;;35.20;;
3297;SDS011;1661;53.572;10.174;2023-03-21T11:02:55;52.53;;;34.63;;
3297;SDS011;1661;53.572;10.174;2023-03-21T11:05:34;49.90;;;32.73;;
3297;SDS011;1661;53.572;10.174;2023-03-21T11:08:04;47.00;;;30.93;;
3297;SDS011;1661;53.572;10.174;2023-03-21T11:10:37;56.97;;;32.77;;
3297;SDS011;1661;53.572;10.174;2023-03-21T11:13:17;45.20;;;29.90;;
3297;SDS011;1661;53.572;10.174;2023-03-21T11:15:50;45.30;;;31.50;;
3297;SDS011;1661;53.572;10.174;2023-03-21T11:18:19;53.13;;;32.30;;
3297;SDS011;1661;53.572;10.174;2023-03-21T11:20:48;44.10;;;30.10;;
3297;SDS011;1661;53.572;10.174;2023-03-21T11:23:17;46.77;;;30.47;;
3297;SDS011;1661;53.572;10.174;2023-03-21T11:25:46;47.43;;;30.80;;
3297;SDS011;1661;53.572;10.174;2023-03-21T11:28:16;48.80;;;31.67;;
3297;SDS011;1661;53.572;10.174;2023-03-21T11:30:52;52.20;;;32.27;;
3297;SDS011;1661;53.572;10.174;2023-03-21T11:33:21;52.57;;;29.53;;
3297;SDS011;1661;53.572;10.174;2023-03-21T11:36:00;43.50;;;29.13;;
3297;SDS011;1661;53.572;10.174;2023-03-21T11:38:30;45.77;;;29.70;;
3297;SDS011;1661;53.572;10.174;2023-03-21T11:41:02;49.93;;;31.30;;
3297;SDS011;1661;53.572;10.174;2023-03-21T11:43:31;47.00;;;32.40;;
3297;SDS011;1661;53.572;10.174;2023-03-21T11:46:05;49.03;;;32.13;;
3297;SDS011;1661;53.572;10.174;2023-03-21T11:48:35;54.87;;;34.20;;
3297;SDS011;1661;53.572;10.174;2023-03-21T11:51:05;56.33;;;35.70;;
3297;SDS011;1661;53.572;10.174;2023-03-21T11:53:42;51.23;;;33.27;;
3297;SDS011;1661;53.572;10.174;2023-03-21T11:59:17;55.10;;;33.23;;
3297;SDS011;1661;53.572;10.174;2023-03-21T12:01:59;67.10;;;40.17;;
3297;SDS011;1661;53.572;10.174;2023-03-21T12:04:38;57.93;;;32.70;;
3297;SDS011;1661;53.572;10.174;2023-03-21T12:07:16;46.57;;;33.83;;
3297;SDS011;1661;53.572;10.174;2023-03-21T12:09:54;53.87;;;32.53;;
3297;SDS011;1661;53.572;10.174;2023-03-21T12:12:32;51.00;;;34.73;;
3297;SDS011;1661;53.572;10.174;2023-03-21T12:15:09;62.87;;;36.90;;
3297;SDS011;1661;53.572;10.174;2023-03-21T12:17:42;59.13;;;37.47;;
3297;SDS011;1661;53.572;10.174;2023-03-21T12:20:33;51.20;;;34.60;;
3297;SDS011;1661;53.572;10.174;2023-03-21T12:23:15;55.63;;;34.43;;
3297;SDS011;1661;53.572;10.174;2023-03-21T12:26:09;60.33;;;39.80;;
3297;SDS011;1661;53.572;10.174;2023-03-21T12:28:47;60.00;;;32.90;;
3297;SDS011;1661;53.572;10.174;2023-03-21T12:31:24;50.20;;;31.40;;
3297;SDS011;1661;53.572;10.174;2023-03-21T12:33:58;57.03;;;35.10;;
3297;SDS011;1661;53.572;10.174;2023-03-21T12:36:40;53.73;;;31.80;;
3297;SDS011;1661;53.572;10.174;2023-03-21T12:39:20;46.20;;;33.23;;
3297;SDS011;1661;53.572;10.174;2023-03-21T12:41:53;43.53;;;30.90;;
3297;SDS011;1661;53.572;10.174;2023-03-21T12:44:40;46.93;;;29.93;;
3297;SDS011;1661;53.572;10.174;2023-03-21T12:47:12;43.10;;;27.50;;
3297;SDS011;1661;53.572;10.174;2023-03-21T12:49:41;39.10;;;27.10;;
3297;SDS011;1661;53.572;10.174;2023-03-21T12:52:13;46.23;;;27.40;;
3297;SDS011;1661;53.572;10.174;2023-03-21T12:54:45;42.63;;;28.70;;
3297;SDS011;1661;53.572;10.174;2023-03-21T12:57:16;47.33;;;29.90;;
3297;SDS011;1661;53.572;10.174;2023-03-21T12:59:49;36.20;;;30.00;;
3297;SDS011;1661;53.572;10.174;2023-03-21T13:02:21;36.17;;;25.93;;
3297;SDS011;1661;53.572;10.174;2023-03-21T13:04:55;40.43;;;30.17;;
3297;SDS011;1661;53.572;10.174;2023-03-21T13:07:28;48.43;;;33.80;;
3297;SDS011;1661;53.572;10.174;2023-03-21T13:09:59;52.13;;;31.90;;
3297;SDS011;1661;53.572;10.174;2023-03-21T13:12:32;33.80;;;24.30;;
3297;SDS011;1661;53.572;10.174;2023-03-21T13:15:16;27.80;;;21.13;;
3297;SDS011;1661;53.572;10.174;2023-03-21T13:18:10;30.00;;;22.53;;
3297;SDS011;1661;53.572;10.174;2023-03-21T13:20:45;28.00;;;21.50;;
3297;SDS011;1661;53.572;10.174;2023-03-21T13:23:14;24.07;;;18.10;;
3297;SDS011;1661;53.572;10.174;2023-03-21T13:25:44;26.57;;;20.70;;
3297;SDS011;1661;53.572;10.174;2023-03-21T13:28:15;21.60;;;18.37;;
3297;SDS011;1661;53.572;10.174;2023-03-21T13:30:49;21.10;;;18.80;;
3297;SDS011;1661;53.572;10.174;2023-03-21T13:33:19;28.00;;;22.20;;
3297;SDS011;1661;53.572;10.174;2023-03-21T13:35:53;31.40;;;22.37;;
3297;SDS011;1661;53.572;10.174;2023-03-21T13:38:32;24.20;;;17.50;;
3297;SDS011;1661;53.572;10.174;2023-03-21T13:41:04;19.50;;;17.37;;
3297;SDS011;1661;53.572;10.174;2023-03-21T13:43:34;20.30;;;17.77;;
3297;SDS011;1661;53.572;10.174;2023-03-21T13:46:07;24.53;;;18.50;;
3297;SDS011;1661;53.572;10.174;2023-03-21T13:48:43;28.37;;;20.90;;
3297;SDS011;1661;53.572;10.174;2023-03-21T13:51:36;26.80;;;19.30;;
3297;SDS011;1661;53.572;10.174;2023-03-21T13:54:15;29.17;;;22.67;;
3297;SDS011;1661;53.572;10.174;2023-03-21T13:59:38;32.10;;;22.00;;
3297;SDS011;1661;53.572;10.174;2023-03-21T14:04:59;21.73;;;16.77;;
3297;SDS011;1661;53.572;10.174;2023-03-21T14:07:28;22.80;;;18.50;;
3297;SDS011;1661;53.572;10.174;2023-03-21T14:09:58;27.13;;;19.60;;
3297;SDS011;1661;53.572;10.174;2023-03-21T14:12:28;28.80;;;20.53;;
3297;SDS011;1661;53.572;10.174;2023-03-21T14:15:00;30.67;;;24.00;;
3297;SDS011;1661;53.572;10.174;2023-03-21T14:17:34;30.33;;;21.00;;
3297;SDS011;1661;53.572;10.174;2023-03-21T14:20:05;25.80;;;19.50;;
3297;SDS011;1661;53.572;10.174;2023-03-21T14:22:38;24.37;;;19.27;;
3297;SDS011;1661;53.572;10.174;2023-03-21T14:25:06;32.73;;;23.50;;
3297;SDS011;1661;53.572;10.174;2023-03-21T14:27:37;24.83;;;18.77;;
3297;SDS011;1661;53.572;10.174;2023-03-21T14:30:09;35.03;;;22.47;;
3297;SDS011;1661;53.572;10.174;2023-03-21T14:32:48;29.67;;;22.37;;
3297;SDS011;1661;53.572;10.174;2023-03-21T14:35:15;29.30;;;22.67;;
3297;SDS011;1661;53.572;10.174;2023-03-21T14:37:44;25.63;;;19.27;;
3297;SDS011;1661;53.572;10.174;2023-03-21T14:40:22;29.70;;;20.77;;
3297;SDS011;1661;53.572;10.174;2023-03-21T14:42:50;29.37;;;20.43;;
3297;SDS011;1661;53.572;10.174;2023-03-21T14:45:19;27.10;;;22.50;;
3297;SDS011;1661;53.572;10.174;2023-03-21T14:47:57;31.27;;;24.30;;
3297;SDS011;1661;53.572;10.174;2023-03-21T14:50:27;26.80;;;20.50;;
3297;SDS011;1661;53.572;10.174;2023-03-21T14:53:00;28.27;;;23.17;;
3297;SDS011;1661;53.572;10.174;2023-03-21T14:55:27;27.53;;;21.50;;
3297;SDS011;1661;53.572;10.174;2023-03-21T14:57:56;35.57;;;30.77;;
3297;SDS011;1661;53.572;10.174;2023-03-21T15:00:24;26.93;;;18.50;;
3297;SDS011;1661;53.572;10.174;2023-03-21T15:02:52;30.10;;;23.40;;
3297;SDS011;1661;53.572;10.174;2023-03-21T15:05:24;26.20;;;18.27;;
3297;SDS011;1661;53.572;10.174;2023-03-21T15:07:55;36.57;;;26.17;;
3297;SDS011;1661;53.572;10.174;2023-03-21T15:10:24;27.53;;;20.83;;